Time;durP1;ratioP1;P1;durP2;ratioP2;P2;SDS_P1;SDS_P2;PMS_P1;PMS_P2;Temp;Humidity;BMP_temperature;BMP_pressure;BME280_temperature;BME280_humidity;BME280_pressure;Samples;Min_cycle;Max_cycle;Signal;HPM_P1;HPM_P2
2024/01/05 00:00:04;;;;;;;15.70;9.25;;;3.10;99.90;;;;;;2072176;28;20065;-71
2024/01/05 00:01:07;;;;;;;10.95;7.72;;;3.10;99.90;;;;;;2057299;28;20037;-71
2024/01/05 00:02:08;;;;;;;10.15;7.05;;;3.10;99.90;;;;;;2072446;28;20800;-72
2024/01/05 00:03:09;;;;;;;13.60;8.30;;;3.10;99.90;;;;;;2081691;28;20505;-72
2024/01/05 00:04:09;;;;;;;13.77;8.43;;;3.10;99.90;;;;;;2077107;28;20105;-72
2024/01/05 00:05:10;;;;;;;9.95;7.07;;;3.10;99.90;;;;;;2075949;28;20034;-71
2024/01/05 00:06:10;;;;;;;10.88;7.72;;;3.00;99.90;;;;;;2070233;28;20033;-72
2024/01/05 00:07:11;;;;;;;10.23;7.22;;;3.00;99.90;;;;;;2084181;28;20078;-71
2024/01/05 00:08:12;;;;;;;11.90;7.43;;;3.00;99.90;;;;;;2085470;28;20025;-72
2024/01/05 00:09:12;;;;;;;11.68;7.72;;;3.00;99.90;;;;;;2083146;28;20024;-72
2024/01/05 00:10:13;;;;;;;13.15;8.10;;;3.00;99.90;;;;;;2068985;28;20108;-71
2024/01/05 00:11:17;;;;;;;9.57;7.00;;;3.00;99.90;;;;;;2075020;28;20034;-71
2024/01/05 00:12:18;;;;;;;10.68;7.18;;;3.00;99.90;;;;;;2074354;28;20059;-71
2024/01/05 00:13:18;;;;;;;12.90;7.65;;;2.90;99.90;;;;;;2076372;28;20052;-71
2024/01/05 00:14:19;;;;;;;10.23;7.07;;;3.00;99.90;;;;;;2076369;28;20033;-72
2024/01/05 00:15:19;;;;;;;8.88;6.30;;;3.00;99.90;;;;;;2080205;28;20033;-71
2024/01/05 00:16:21;;;;;;;10.43;7.13;;;3.00;99.90;;;;;;2084023;28;20056;-72
2024/01/05 00:17:22;;;;;;;13.93;8.43;;;3.00;99.90;;;;;;2080083;28;20208;-72
2024/01/05 00:18:23;;;;;;;13.15;8.32;;;3.00;99.90;;;;;;2085345;28;20506;-72
2024/01/05 00:19:23;;;;;;;13.40;8.18;;;3.00;99.90;;;;;;2067916;28;20028;-72
2024/01/05 00:20:24;;;;;;;12.65;8.40;;;3.00;99.90;;;;;;2063824;28;20756;-72
2024/01/05 00:21:26;;;;;;;10.02;7.28;;;3.00;99.90;;;;;;2080272;28;20060;-71
2024/01/05 00:22:26;;;;;;;11.70;7.50;;;3.10;99.90;;;;;;2076994;28;20384;-72
2024/01/05 00:23:27;;;;;;;10.73;7.20;;;3.10;99.90;;;;;;2080742;28;20029;-72
2024/01/05 00:24:27;;;;;;;11.48;7.45;;;3.10;99.90;;;;;;2079928;28;20037;-72
2024/01/05 00:25:28;;;;;;;10.32;7.63;;;3.10;99.90;;;;;;2071293;28;20030;-72
2024/01/05 00:26:28;;;;;;;11.13;7.63;;;3.10;99.90;;;;;;2076311;28;20029;-72
2024/01/05 00:27:29;;;;;;;11.32;8.00;;;3.10;99.90;;;;;;2081899;28;20025;-73
2024/01/05 00:28:30;;;;;;;11.25;8.10;;;3.10;99.90;;;;;;2073380;28;21078;-72
2024/01/05 00:29:30;;;;;;;12.02;8.00;;;3.10;99.90;;;;;;2082390;28;20482;-72
2024/01/05 00:30:34;;;;;;;12.65;7.95;;;3.10;99.90;;;;;;2075673;28;20034;-72
2024/01/05 00:31:35;;;;;;;11.23;7.90;;;3.10;99.90;;;;;;2068558;28;20408;-72
2024/01/05 00:32:38;;;;;;;9.98;7.35;;;3.10;99.90;;;;;;2068841;28;20029;-72
2024/01/05 00:33:39;;;;;;;12.38;7.90;;;3.10;99.90;;;;;;2080941;28;20033;-72
2024/01/05 00:34:40;;;;;;;10.65;8.00;;;3.10;99.90;;;;;;2079492;28;20025;-72
2024/01/05 00:35:41;;;;;;;11.55;7.63;;;3.10;99.90;;;;;;2070193;28;20041;-72
2024/01/05 00:36:41;;;;;;;11.45;8.02;;;3.10;99.90;;;;;;2077035;28;20495;-72
2024/01/05 00:37:42;;;;;;;11.45;8.07;;;3.10;99.90;;;;;;2077454;28;20033;-72
2024/01/05 00:38:47;;;;;;;11.35;8.02;;;3.10;99.90;;;;;;2076177;28;20033;-72
2024/01/05 00:39:47;;;;;;;11.52;8.20;;;3.20;99.90;;;;;;2068615;28;20034;-72
2024/01/05 00:40:48;;;;;;;11.55;7.85;;;3.20;99.90;;;;;;2087756;28;20082;-72
2024/01/05 00:41:48;;;;;;;11.55;8.13;;;3.20;99.90;;;;;;2071311;28;20610;-72
2024/01/05 00:42:49;;;;;;;11.18;8.20;;;3.30;99.90;;;;;;2066979;28;20049;-72
2024/01/05 00:43:49;;;;;;;11.43;8.50;;;3.30;99.90;;;;;;2077910;28;20040;-72
2024/01/05 00:44:50;;;;;;;11.77;7.85;;;3.30;99.90;;;;;;2075725;28;20026;-72
2024/01/05 00:45:50;;;;;;;11.77;8.55;;;3.30;99.90;;;;;;2074559;28;20136;-72
2024/01/05 00:46:51;;;;;;;11.68;8.38;;;3.30;99.90;;;;;;2082019;28;20048;-72
2024/01/05 00:47:52;;;;;;;12.73;9.05;;;3.30;99.90;;;;;;2085934;28;20036;-72
2024/01/05 00:48:52;;;;;;;14.43;9.23;;;3.30;99.90;;;;;;2073151;28;20502;-72
2024/01/05 00:49:53;;;;;;;12.43;8.82;;;3.30;99.90;;;;;;2082540;28;20029;-72
2024/01/05 00:50:53;;;;;;;12.00;8.38;;;3.30;99.90;;;;;;2088247;28;20036;-71
2024/01/05 00:51:54;;;;;;;12.05;8.23;;;3.30;99.90;;;;;;2083880;28;20038;-72
2024/01/05 00:52:54;;;;;;;13.60;8.68;;;3.30;99.90;;;;;;2076254;28;20041;-72
2024/01/05 00:53:55;;;;;;;13.10;9.02;;;3.30;99.90;;;;;;2078722;28;20041;-71
2024/01/05 00:54:56;;;;;;;13.20;9.25;;;3.30;99.90;;;;;;2066319;28;20034;-72
2024/01/05 00:55:57;;;;;;;14.10;9.45;;;3.30;99.90;;;;;;2066917;28;20033;-72
2024/01/05 00:56:57;;;;;;;13.18;9.20;;;3.40;99.90;;;;;;2075326;28;20039;-73
2024/01/05 00:57:58;;;;;;;13.02;9.13;;;3.30;99.90;;;;;;2078486;28;20155;-71
2024/01/05 00:58:58;;;;;;;13.18;9.45;;;3.30;99.90;;;;;;2077853;28;20415;-71
2024/01/05 00:59:59;;;;;;;13.00;9.48;;;3.20;99.90;;;;;;2068347;28;20507;-72
2024/01/05 01:00:59;;;;;;;13.60;9.68;;;3.20;99.90;;;;;;2068144;28;20025;-72
2024/01/05 01:02:00;;;;;;;14.45;9.70;;;3.30;99.90;;;;;;2079913;28;20021;-72
2024/01/05 01:03:01;;;;;;;12.77;9.18;;;3.30;99.90;;;;;;2073486;28;20087;-72
2024/01/05 01:04:01;;;;;;;14.27;10.05;;;3.30;99.90;;;;;;2072322;28;20435;-71
2024/01/05 01:05:02;;;;;;;13.60;9.32;;;3.30;99.90;;;;;;2069582;28;20506;-71
2024/01/05 01:06:03;;;;;;;14.57;9.60;;;3.30;99.90;;;;;;2069649;28;20488;-71
2024/01/05 01:07:03;;;;;;;14.18;9.45;;;3.30;99.90;;;;;;2072569;28;20033;-70
2024/01/05 01:08:04;;;;;;;14.70;9.77;;;3.30;99.90;;;;;;2079623;28;20107;-72
2024/01/05 01:09:05;;;;;;;13.70;9.30;;;3.20;99.90;;;;;;2068710;28;20558;-71
2024/01/05 01:10:06;;;;;;;13.63;9.50;;;3.30;99.90;;;;;;2058235;28;20041;-71
2024/01/05 01:11:14;;;;;;;14.02;9.38;;;3.40;99.90;;;;;;2072812;28;20455;-71
2024/01/05 01:12:14;;;;;;;14.05;9.70;;;3.40;99.90;;;;;;2080946;28;20021;-71
2024/01/05 01:13:15;;;;;;;13.43;9.65;;;3.40;99.90;;;;;;2070865;28;20462;-71
2024/01/05 01:14:15;;;;;;;15.20;10.00;;;3.40;99.90;;;;;;2083211;28;20437;-71
2024/01/05 01:15:16;;;;;;;14.77;10.02;;;3.40;99.90;;;;;;2082465;28;20086;-71
2024/01/05 01:16:16;;;;;;;13.13;9.00;;;3.50;99.90;;;;;;2072768;28;20034;-71
2024/01/05 01:17:17;;;;;;;14.88;9.40;;;3.60;99.90;;;;;;2072232;28;20033;-71
2024/01/05 01:18:17;;;;;;;14.50;9.82;;;3.60;99.90;;;;;;2082549;28;20025;-72
2024/01/05 01:19:18;;;;;;;13.73;9.20;;;3.60;99.90;;;;;;2081858;28;20029;-72
2024/01/05 01:20:18;;;;;;;13.63;9.80;;;3.60;99.90;;;;;;2072695;28;20026;-72
2024/01/05 01:21:19;;;;;;;15.18;10.02;;;3.60;99.90;;;;;;2065348;28;20030;-71
2024/01/05 01:22:19;;;;;;;14.73;10.23;;;3.60;99.90;;;;;;2072922;28;20116;-71
2024/01/05 01:23:20;;;;;;;13.85;9.80;;;3.60;99.90;;;;;;2073824;28;20479;-72
2024/01/05 01:24:20;;;;;;;13.40;9.68;;;3.50;99.90;;;;;;2071961;28;20064;-71
2024/01/05 01:25:21;;;;;;;13.70;9.80;;;3.50;99.90;;;;;;2075459;28;20513;-71
2024/01/05 01:26:22;;;;;;;13.23;9.45;;;3.50;99.90;;;;;;2087939;28;20031;-72
2024/01/05 01:27:22;;;;;;;14.02;10.13;;;3.40;99.90;;;;;;2087807;28;20017;-71
2024/01/05 01:28:23;;;;;;;14.40;10.02;;;3.40;99.90;;;;;;2079026;28;20025;-72
2024/01/05 01:29:25;;;;;;;14.88;10.10;;;3.50;99.90;;;;;;2078149;28;20053;-72
2024/01/05 01:30:25;;;;;;;13.23;9.60;;;3.50;99.90;;;;;;2080843;28;20080;-71
2024/01/05 01:31:28;;;;;;;15.48;10.25;;;3.50;99.90;;;;;;2077732;28;20471;-72
2024/01/05 01:32:29;;;;;;;14.85;10.43;;;3.50;99.90;;;;;;2078250;28;20025;-72
2024/01/05 01:33:29;;;;;;;14.20;10.02;;;3.50;99.90;;;;;;2070835;28;20052;-72
2024/01/05 01:34:30;;;;;;;15.90;10.68;;;3.50;99.90;;;;;;2071307;28;20028;-72
2024/01/05 01:35:31;;;;;;;13.60;10.10;;;3.60;99.90;;;;;;2073450;28;20168;-72
2024/01/05 01:36:31;;;;;;;13.93;10.10;;;3.50;99.90;;;;;;2071247;28;20030;-72
2024/01/05 01:37:32;;;;;;;13.85;9.65;;;3.50;99.90;;;;;;2065040;28;20141;-72
2024/01/05 01:38:32;;;;;;;14.60;10.27;;;3.60;99.90;;;;;;2068060;28;20029;-72
2024/01/05 01:39:33;;;;;;;15.13;10.30;;;3.60;99.90;;;;;;2067502;28;20025;-72
2024/01/05 01:40:34;;;;;;;14.68;9.75;;;3.60;99.90;;;;;;2074842;28;20022;-73
2024/01/05 01:41:34;;;;;;;14.40;10.07;;;3.70;99.90;;;;;;2077313;28;20535;-72
2024/01/05 01:42:36;;;;;;;13.18;9.55;;;3.70;99.90;;;;;;2084619;28;20029;-72
2024/01/05 01:43:36;;;;;;;15.35;10.27;;;3.70;99.90;;;;;;2074671;28;20026;-73
2024/01/05 01:44:37;;;;;;;15.77;10.35;;;3.60;99.90;;;;;;2075770;28;20029;-72
2024/01/05 01:45:37;;;;;;;14.90;10.25;;;3.60;99.90;;;;;;2068390;28;20018;-72
2024/01/05 01:46:39;;;;;;;14.05;10.23;;;3.60;99.90;;;;;;2065240;28;20033;-72
2024/01/05 01:47:41;;;;;;;15.18;10.40;;;3.60;99.90;;;;;;2069882;28;20088;-72
2024/01/05 01:48:44;;;;;;;14.23;10.18;;;3.60;99.90;;;;;;2082493;28;20126;-72
2024/01/05 01:49:44;;;;;;;14.65;10.18;;;3.60;99.90;;;;;;2077841;28;20041;-72
2024/01/05 01:50:46;;;;;;;17.58;11.05;;;3.60;99.90;;;;;;2084789;28;20037;-72
2024/01/05 01:51:47;;;;;;;14.20;10.30;;;3.60;99.90;;;;;;2084296;28;20406;-72
2024/01/05 01:52:48;;;;;;;17.58;10.60;;;3.60;99.90;;;;;;2076252;28;20116;-70
2024/01/05 01:53:50;;;;;;;16.27;10.73;;;3.60;99.90;;;;;;2079946;28;20040;-71
2024/01/05 01:54:50;;;;;;;14.82;10.65;;;3.50;99.90;;;;;;2080158;28;20497;-71
2024/01/05 01:55:52;;;;;;;14.93;9.95;;;3.50;99.90;;;;;;2069266;28;20038;-71
2024/01/05 01:56:52;;;;;;;14.40;10.30;;;3.60;99.90;;;;;;2070601;28;20030;-71
2024/01/05 01:57:53;;;;;;;15.20;10.30;;;3.50;99.90;;;;;;2070323;28;20117;-70
2024/01/05 01:58:55;;;;;;;16.98;11.13;;;3.50;99.90;;;;;;2072671;28;20040;-72
2024/01/05 01:59:56;;;;;;;16.20;11.32;;;3.50;99.90;;;;;;2069456;28;20085;-71
2024/01/05 02:00:56;;;;;;;15.98;11.30;;;3.50;99.90;;;;;;2067261;28;20519;-71
2024/01/05 02:01:58;;;;;;;16.10;11.20;;;3.50;99.90;;;;;;2065145;28;20029;-72
2024/01/05 02:03:00;;;;;;;15.90;10.82;;;3.60;99.90;;;;;;2072521;28;20026;-72
2024/01/05 02:04:00;;;;;;;14.93;10.57;;;3.50;99.90;;;;;;2074839;28;20040;-71
2024/01/05 02:05:01;;;;;;;16.52;11.02;;;3.60;99.90;;;;;;2067157;28;20052;-71
2024/01/05 02:06:02;;;;;;;15.63;10.80;;;3.60;99.90;;;;;;2071348;28;20060;-71
2024/01/05 02:07:03;;;;;;;15.45;10.30;;;3.60;99.90;;;;;;2084102;28;20048;-71
2024/01/05 02:08:04;;;;;;;15.30;11.23;;;3.60;99.90;;;;;;2072842;28;20495;-71
2024/01/05 02:09:05;;;;;;;17.58;10.38;;;3.60;99.90;;;;;;2063811;28;20049;-71
2024/01/05 02:10:06;;;;;;;14.20;10.07;;;3.60;99.90;;;;;;2069321;28;20025;-71
2024/01/05 02:11:07;;;;;;;15.18;10.32;;;3.70;99.90;;;;;;2071568;28;20450;-71
2024/01/05 02:12:07;;;;;;;15.10;10.73;;;3.70;99.90;;;;;;2071278;28;20034;-71
2024/01/05 02:13:08;;;;;;;14.80;9.95;;;3.70;99.90;;;;;;2083114;28;20025;-71
2024/01/05 02:14:09;;;;;;;16.55;10.30;;;3.70;99.90;;;;;;2075884;28;20088;-71
2024/01/05 02:15:09;;;;;;;15.18;10.18;;;3.70;99.90;;;;;;2071933;28;20096;-71
2024/01/05 02:16:11;;;;;;;16.48;11.20;;;3.70;99.90;;;;;;2075263;28;20385;-70
2024/01/05 02:17:27;;;;;;;15.38;10.32;;;3.70;99.90;;;;;;2078802;28;20110;-73
2024/01/05 02:18:28;;;;;;;20.83;11.35;;;3.80;99.90;;;;;;2076983;28;20041;-73
2024/01/05 02:19:28;;;;;;;14.40;10.60;;;3.70;99.90;;;;;;2075859;28;20126;-73
2024/01/05 02:20:29;;;;;;;15.20;10.57;;;3.70;99.90;;;;;;2078918;28;20025;-71
2024/01/05 02:21:32;;;;;;;14.38;10.43;;;3.70;99.90;;;;;;2081117;28;20494;-71
2024/01/05 02:22:35;;;;;;;16.73;10.70;;;3.70;99.90;;;;;;2071582;28;20021;-72
2024/01/05 02:23:35;;;;;;;15.77;11.05;;;3.70;99.90;;;;;;2071809;28;20395;-72
2024/01/05 02:24:36;;;;;;;16.35;10.85;;;3.60;99.90;;;;;;2071824;28;20267;-71
2024/01/05 02:25:36;;;;;;;15.63;10.50;;;3.60;99.90;;;;;;2068052;28;20563;-71
2024/01/05 02:26:38;;;;;;;14.93;10.40;;;3.70;99.90;;;;;;2064656;28;20117;-72
2024/01/05 02:27:39;;;;;;;16.90;10.20;;;3.70;99.90;;;;;;2075581;28;20452;-72
2024/01/05 02:28:40;;;;;;;15.93;10.60;;;3.70;99.90;;;;;;2081088;28;20037;-72
2024/01/05 02:29:41;;;;;;;14.75;10.32;;;3.70;99.90;;;;;;2066719;28;20508;-72
2024/01/05 02:30:41;;;;;;;17.10;11.35;;;3.70;99.90;;;;;;2063529;28;20223;-72
2024/01/05 02:31:42;;;;;;;16.65;11.07;;;3.70;99.90;;;;;;2061315;28;20034;-72
2024/01/05 02:32:42;;;;;;;19.67;11.10;;;3.60;99.90;;;;;;2074320;28;20026;-73
2024/01/05 02:33:43;;;;;;;16.55;10.85;;;3.60;99.90;;;;;;2070881;28;20139;-73
2024/01/05 02:34:44;;;;;;;15.60;10.77;;;3.60;99.90;;;;;;2071357;28;20055;-73
2024/01/05 02:35:44;;;;;;;16.23;10.45;;;3.60;99.90;;;;;;2075048;28;20083;-75
2024/01/05 02:36:45;;;;;;;18.25;12.05;;;3.70;99.90;;;;;;2083545;28;20079;-73
2024/01/05 02:37:46;;;;;;;18.20;11.82;;;3.70;99.90;;;;;;2063359;28;20117;-71
2024/01/05 02:38:46;;;;;;;17.77;11.35;;;3.70;99.90;;;;;;2071254;28;20030;-71
2024/01/05 02:39:47;;;;;;;15.57;10.63;;;3.80;99.90;;;;;;2070321;28;20041;-71
2024/01/05 02:40:47;;;;;;;16.85;10.73;;;3.70;99.90;;;;;;2059013;28;20038;-71
2024/01/05 02:41:48;;;;;;;16.75;10.43;;;3.60;99.90;;;;;;2066636;28;20030;-71
2024/01/05 02:42:48;;;;;;;15.82;10.40;;;3.60;99.90;;;;;;2069210;28;20093;-71
2024/01/05 02:43:49;;;;;;;13.52;10.00;;;3.60;99.90;;;;;;2071107;28;20573;-70
2024/01/05 02:44:49;;;;;;;16.40;10.82;;;3.60;99.90;;;;;;2068180;28;20029;-71
2024/01/05 02:45:50;;;;;;;15.50;10.82;;;3.60;99.90;;;;;;2083524;28;20029;-71
2024/01/05 02:46:51;;;;;;;16.10;10.73;;;3.60;99.90;;;;;;2082015;28;20029;-71
2024/01/05 02:47:51;;;;;;;16.27;11.02;;;3.60;99.90;;;;;;2058848;28;20065;-71
2024/01/05 02:48:52;;;;;;;20.15;11.68;;;3.60;99.90;;;;;;2072696;28;20028;-72
2024/01/05 02:49:53;;;;;;;16.83;10.77;;;3.70;99.90;;;;;;2066832;28;20026;-71
2024/01/05 02:50:53;;;;;;;16.13;10.90;;;3.70;99.90;;;;;;2059159;28;20033;-71
2024/01/05 02:51:54;;;;;;;14.60;10.48;;;3.70;99.90;;;;;;2065064;28;20017;-71
2024/01/05 02:52:54;;;;;;;17.77;10.65;;;3.50;99.90;;;;;;2062919;28;20033;-72
2024/01/05 02:53:55;;;;;;;15.75;10.25;;;3.60;99.90;;;;;;2075710;28;20057;-72
2024/01/05 02:54:56;;;;;;;16.73;11.45;;;3.60;99.90;;;;;;2074907;28;20689;-72
2024/01/05 02:55:56;;;;;;;16.75;10.73;;;3.50;99.90;;;;;;2070358;28;20033;-72
2024/01/05 02:56:57;;;;;;;16.48;10.48;;;3.50;99.90;;;;;;2069922;28;20108;-72
2024/01/05 02:57:57;;;;;;;15.13;10.50;;;3.50;99.90;;;;;;2072293;28;20539;-72
2024/01/05 02:58:58;;;;;;;15.75;10.43;;;3.40;99.90;;;;;;2073176;28;20017;-72
2024/01/05 02:59:58;;;;;;;15.23;10.55;;;3.40;99.90;;;;;;2062642;28;20084;-72
2024/01/05 03:00:59;;;;;;;16.23;10.68;;;3.40;99.90;;;;;;2060150;28;20045;-71
2024/01/05 03:02:00;;;;;;;15.45;10.20;;;3.40;99.90;;;;;;2075323;28;20503;-71
2024/01/05 03:03:01;;;;;;;14.32;10.00;;;3.30;99.90;;;;;;2080198;28;20053;-71
2024/01/05 03:04:02;;;;;;;14.43;9.80;;;3.30;99.90;;;;;;2083320;28;20037;-71
2024/01/05 03:05:04;;;;;;;13.35;9.88;;;3.30;99.90;;;;;;2066633;28;20073;-71
2024/01/05 03:06:04;;;;;;;15.73;10.13;;;3.20;99.90;;;;;;2062833;28;20030;-71
2024/01/05 03:07:05;;;;;;;15.55;10.50;;;3.20;99.90;;;;;;2083030;28;20158;-71
2024/01/05 03:08:06;;;;;;;17.65;11.05;;;3.20;99.90;;;;;;2083675;28;20032;-71
2024/01/05 03:09:08;;;;;;;20.92;11.85;;;3.30;99.90;;;;;;2072854;28;20029;-71
2024/01/05 03:10:09;;;;;;;16.20;10.80;;;3.30;99.90;;;;;;2078693;28;20403;-73
2024/01/05 03:11:10;;;;;;;16.83;10.93;;;3.30;99.90;;;;;;2070716;28;20033;-71
2024/01/05 03:12:10;;;;;;;15.70;10.25;;;3.20;99.90;;;;;;2063064;28;20663;-71
2024/01/05 03:13:11;;;;;;;23.15;13.05;;;3.20;99.90;;;;;;2063760;28;20105;-71
2024/01/05 03:14:13;;;;;;;15.55;10.75;;;3.30;99.90;;;;;;2079300;28;20028;-71
2024/01/05 03:15:16;;;;;;;15.65;10.27;;;3.20;99.90;;;;;;2083151;28;20091;-72
2024/01/05 03:16:16;;;;;;;16.27;10.57;;;3.20;99.90;;;;;;2070025;28;20025;-71
2024/01/05 03:17:17;;;;;;;18.13;11.32;;;3.10;99.90;;;;;;2068479;28;20049;-72
2024/01/05 03:18:17;;;;;;;17.23;11.32;;;3.10;99.90;;;;;;2073947;28;20024;-71
2024/01/05 03:19:18;;;;;;;16.38;10.80;;;3.10;99.90;;;;;;2068487;28;20088;-71
2024/01/05 03:20:19;;;;;;;17.83;11.25;;;3.10;99.90;;;;;;2066289;28;20128;-72
2024/01/05 03:21:21;;;;;;;16.88;10.55;;;3.10;99.90;;;;;;2072776;28;20526;-71
2024/01/05 03:22:22;;;;;;;17.27;10.98;;;3.10;99.90;;;;;;2079919;28;20760;-71
2024/01/05 03:23:22;;;;;;;17.60;11.15;;;3.10;99.90;;;;;;2069923;28;20076;-72
2024/01/05 03:24:24;;;;;;;17.55;11.07;;;3.10;99.90;;;;;;2076429;28;20047;-71
2024/01/05 03:25:24;;;;;;;17.23;10.73;;;3.10;99.90;;;;;;2067059;28;20026;-73
2024/01/05 03:26:25;;;;;;;19.42;12.00;;;3.00;99.90;;;;;;2074142;28;20032;-71
2024/01/05 03:27:25;;;;;;;18.05;11.45;;;3.10;99.90;;;;;;2076070;28;20127;-70
2024/01/05 03:28:26;;;;;;;17.77;11.73;;;3.00;99.90;;;;;;2084691;28;20033;-71
2024/01/05 03:29:27;;;;;;;17.33;11.07;;;3.00;99.90;;;;;;2085546;28;20108;-70
2024/01/05 03:30:27;;;;;;;17.58;11.20;;;3.00;99.90;;;;;;2069061;28;20041;-73
2024/01/05 03:31:28;;;;;;;16.98;10.73;;;3.00;99.90;;;;;;2069876;28;20035;-72
2024/01/05 03:32:28;;;;;;;18.05;11.38;;;3.10;99.90;;;;;;2077513;28;20030;-71
2024/01/05 03:33:29;;;;;;;17.85;10.57;;;3.00;99.90;;;;;;2084259;28;20025;-71
2024/01/05 03:34:30;;;;;;;16.70;10.73;;;3.00;99.90;;;;;;2077701;28;20052;-72
2024/01/05 03:35:31;;;;;;;15.77;10.13;;;3.00;99.90;;;;;;2084719;28;20536;-71
2024/01/05 03:36:31;;;;;;;14.02;9.57;;;3.00;99.90;;;;;;2082787;28;20078;-72
2024/01/05 03:37:32;;;;;;;16.23;9.73;;;3.00;99.90;;;;;;2085490;28;20037;-71
2024/01/05 03:38:32;;;;;;;15.27;10.23;;;3.00;99.90;;;;;;2078387;28;20087;-71
2024/01/05 03:39:33;;;;;;;15.55;9.80;;;2.90;99.90;;;;;;2076631;28;20025;-72
2024/01/05 03:40:33;;;;;;;15.55;10.02;;;2.90;99.90;;;;;;2076446;28;20136;-71
2024/01/05 03:41:34;;;;;;;17.80;10.40;;;3.00;99.90;;;;;;2077714;28;20033;-71
2024/01/05 03:42:35;;;;;;;15.32;10.32;;;2.90;99.90;;;;;;2085205;28;20033;-71
2024/01/05 03:43:35;;;;;;;14.85;9.88;;;2.90;99.90;;;;;;2064140;28;20046;-71
2024/01/05 03:44:36;;;;;;;14.20;9.57;;;2.90;99.90;;;;;;2052436;28;20068;-71
2024/01/05 03:45:37;;;;;;;14.70;10.27;;;2.90;99.90;;;;;;2064263;28;20022;-71
2024/01/05 03:46:37;;;;;;;17.00;10.88;;;2.90;99.90;;;;;;2085446;28;20082;-71
2024/01/05 03:47:38;;;;;;;19.33;11.43;;;2.90;99.90;;;;;;2064186;28;20026;-71
2024/01/05 03:48:39;;;;;;;17.27;11.30;;;2.80;99.90;;;;;;2064294;28;20089;-71
2024/01/05 03:49:39;;;;;;;16.25;9.85;;;2.90;99.90;;;;;;2068102;28;20022;-71
2024/01/05 03:50:40;;;;;;;15.60;9.73;;;2.90;99.90;;;;;;2057123;28;20534;-71
2024/01/05 03:51:41;;;;;;;14.15;9.75;;;2.90;99.90;;;;;;2076603;28;20045;-71
2024/01/05 03:52:41;;;;;;;14.98;9.70;;;2.90;99.90;;;;;;2081145;28;20041;-71
2024/01/05 03:53:42;;;;;;;14.15;9.80;;;3.00;99.90;;;;;;2076470;28;20029;-72
2024/01/05 03:54:42;;;;;;;16.48;10.90;;;2.90;99.90;;;;;;2074256;28;20235;-71
2024/01/05 03:55:43;;;;;;;19.13;12.50;;;3.00;99.90;;;;;;2079130;28;20044;-71
2024/01/05 03:56:48;;;;;;;17.20;12.32;;;3.00;99.90;;;;;;2082766;28;20029;-71
2024/01/05 03:57:49;;;;;;;13.15;9.32;;;2.90;99.90;;;;;;2076185;28;20503;-71
2024/01/05 03:58:49;;;;;;;14.65;9.50;;;2.90;99.90;;;;;;2070797;28;20121;-71
2024/01/05 03:59:50;;;;;;;15.50;9.98;;;2.90;99.90;;;;;;2081022;28;20017;-71
2024/01/05 04:00:51;;;;;;;14.60;9.80;;;2.90;99.90;;;;;;2083421;28;20036;-71
2024/01/05 04:01:51;;;;;;;14.43;9.50;;;2.90;99.90;;;;;;2081739;28;20114;-71
2024/01/05 04:02:52;;;;;;;14.45;9.57;;;2.90;99.90;;;;;;2083358;28;20027;-72
2024/01/05 04:03:52;;;;;;;13.27;8.98;;;2.90;99.90;;;;;;2074172;28;20048;-72
2024/01/05 04:04:53;;;;;;;16.17;9.98;;;3.00;99.90;;;;;;2066540;28;20026;-72
2024/01/05 04:05:53;;;;;;;18.58;10.70;;;3.00;99.90;;;;;;2063444;28;20033;-72
2024/01/05 04:06:55;;;;;;;16.33;9.90;;;3.00;99.90;;;;;;2073319;28;20037;-72
2024/01/05 04:07:55;;;;;;;14.73;10.15;;;3.00;99.90;;;;;;2072002;28;22806;-72
2024/01/05 04:08:56;;;;;;;13.27;9.55;;;3.00;99.90;;;;;;2070679;28;20046;-72
2024/01/05 04:09:57;;;;;;;14.52;9.52;;;2.90;99.90;;;;;;2071170;28;20088;-72
2024/01/05 04:10:58;;;;;;;16.70;10.45;;;2.90;99.90;;;;;;2077176;28;20030;-72
2024/01/05 04:11:58;;;;;;;16.25;10.35;;;2.80;99.90;;;;;;2070646;28;20017;-72
2024/01/05 04:12:59;;;;;;;16.55;10.75;;;2.80;99.90;;;;;;2066610;28;20077;-72
2024/01/05 04:13:59;;;;;;;17.75;10.63;;;2.80;99.90;;;;;;2076476;28;20554;-71
2024/01/05 04:15:00;;;;;;;15.52;9.98;;;2.70;99.90;;;;;;2082900;28;20067;-71
2024/01/05 04:16:00;;;;;;;16.30;10.48;;;2.80;99.90;;;;;;2071305;28;20077;-72
2024/01/05 04:17:01;;;;;;;14.63;9.70;;;2.70;99.90;;;;;;2065671;28;20041;-72
2024/01/05 04:18:02;;;;;;;15.93;10.07;;;2.70;99.90;;;;;;2067871;28;20045;-71
2024/01/05 04:19:02;;;;;;;15.15;9.73;;;2.80;99.90;;;;;;2073268;28;20033;-71
2024/01/05 04:20:03;;;;;;;14.23;9.68;;;2.70;99.90;;;;;;2069826;28;20045;-71
2024/01/05 04:21:04;;;;;;;13.63;9.32;;;2.70;99.90;;;;;;2065046;28;20034;-72
2024/01/05 04:22:06;;;;;;;13.32;9.48;;;2.70;99.90;;;;;;2066886;28;20034;-72
2024/01/05 04:23:07;;;;;;;14.05;9.23;;;2.60;99.90;;;;;;2085156;28;20121;-71
2024/01/05 04:24:08;;;;;;;14.38;9.40;;;2.70;99.90;;;;;;2081569;28;20449;-72
2024/01/05 04:25:08;;;;;;;15.40;9.82;;;2.70;99.90;;;;;;2076337;28;20137;-72
2024/01/05 04:26:09;;;;;;;13.55;9.10;;;2.60;99.90;;;;;;2076246;28;20084;-72
2024/01/05 04:27:09;;;;;;;14.43;9.77;;;2.60;99.90;;;;;;2076091;28;20053;-72
2024/01/05 04:28:10;;;;;;;15.50;9.82;;;2.70;99.90;;;;;;2063819;28;20029;-69
2024/01/05 04:29:11;;;;;;;14.70;9.40;;;2.70;99.90;;;;;;2077167;28;20033;-71
2024/01/05 04:30:12;;;;;;;14.52;9.68;;;2.60;99.90;;;;;;2076370;28;20038;-72
2024/01/05 04:31:12;;;;;;;14.80;9.32;;;2.60;99.90;;;;;;2079379;28;20025;-71
2024/01/05 04:32:13;;;;;;;22.98;15.25;;;2.60;99.90;;;;;;2074512;28;20021;-71
2024/01/05 04:33:13;;;;;;;20.52;12.13;;;2.70;99.90;;;;;;2068386;28;20033;-71
2024/01/05 04:34:14;;;;;;;20.17;10.98;;;2.70;99.90;;;;;;2078220;28;20077;-71
2024/01/05 04:35:14;;;;;;;18.65;10.82;;;2.60;99.90;;;;;;2075526;28;20072;-72
2024/01/05 04:36:15;;;;;;;17.10;11.05;;;2.60;99.90;;;;;;2067913;28;20055;-71
2024/01/05 04:37:16;;;;;;;24.10;12.73;;;2.60;99.90;;;;;;2076629;28;20055;-72
2024/01/05 04:38:17;;;;;;;18.60;11.32;;;2.70;99.90;;;;;;2064377;28;20037;-71
2024/01/05 04:39:17;;;;;;;15.48;9.80;;;2.70;99.90;;;;;;2068891;28;20101;-72
2024/01/05 04:40:18;;;;;;;15.57;10.43;;;2.70;99.90;;;;;;2083507;28;20052;-76
2024/01/05 04:41:19;;;;;;;14.73;9.65;;;2.70;99.90;;;;;;2076993;28;20053;-76
2024/01/05 04:42:19;;;;;;;16.00;9.93;;;2.70;99.90;;;;;;2083782;28;20021;-75
2024/01/05 04:43:20;;;;;;;18.38;10.50;;;2.70;99.90;;;;;;2069025;28;20041;-75
2024/01/05 04:44:21;;;;;;;15.73;9.50;;;2.70;99.90;;;;;;2067110;28;20388;-75
2024/01/05 04:45:21;;;;;;;14.73;9.73;;;2.70;99.90;;;;;;2067334;28;20030;-76
2024/01/05 04:46:22;;;;;;;14.43;9.65;;;2.70;99.90;;;;;;2068821;28;20113;-75
2024/01/05 04:47:23;;;;;;;15.02;9.88;;;2.70;99.90;;;;;;2080921;28;20073;-76
2024/01/05 04:48:23;;;;;;;15.38;9.70;;;2.60;99.90;;;;;;2076098;28;20014;-76
2024/01/05 04:49:25;;;;;;;14.43;9.75;;;2.60;99.90;;;;;;2066488;28;20036;-76
2024/01/05 04:50:26;;;;;;;14.90;10.15;;;2.60;99.90;;;;;;2072375;28;20060;-76
2024/01/05 04:51:26;;;;;;;15.80;10.20;;;2.50;99.90;;;;;;2072934;28;20029;-76
2024/01/05 04:52:27;;;;;;;13.93;9.65;;;2.50;99.90;;;;;;2075887;28;20036;-76
2024/01/05 04:53:27;;;;;;;13.90;9.70;;;2.50;99.90;;;;;;2075346;28;20036;-76
2024/01/05 04:54:28;;;;;;;14.73;9.82;;;2.50;99.90;;;;;;2070402;28;20043;-76
2024/01/05 04:55:28;;;;;;;17.42;10.20;;;2.50;99.90;;;;;;2073317;28;20101;-76
2024/01/05 04:56:29;;;;;;;14.60;9.60;;;2.50;99.90;;;;;;2081254;28;20021;-76
2024/01/05 04:57:30;;;;;;;14.88;9.40;;;2.50;99.90;;;;;;2075440;28;20139;-75
2024/01/05 04:58:30;;;;;;;14.23;9.85;;;2.50;99.90;;;;;;2067698;28;20080;-75
2024/01/05 04:59:31;;;;;;;14.75;9.65;;;2.50;99.90;;;;;;2061234;28;20481;-75
2024/01/05 05:00:31;;;;;;;13.80;9.27;;;2.50;99.90;;;;;;2069643;28;20524;-76
2024/01/05 05:01:32;;;;;;;15.63;9.90;;;2.50;99.90;;;;;;2075996;28;20067;-76
2024/01/05 05:02:33;;;;;;;14.57;10.52;;;2.40;99.90;;;;;;2073827;28;20036;-77
2024/01/05 05:03:34;;;;;;;16.17;10.65;;;2.40;99.90;;;;;;2074289;28;20059;-77
2024/01/05 05:04:34;;;;;;;15.63;10.13;;;2.40;99.90;;;;;;2076994;28;20472;-77
2024/01/05 05:05:35;;;;;;;16.17;10.60;;;2.40;99.90;;;;;;2071077;28;20053;-76
2024/01/05 05:06:36;;;;;;;13.75;9.95;;;2.40;99.90;;;;;;2071991;28;20467;-77
2024/01/05 05:07:36;;;;;;;19.02;10.77;;;2.30;99.90;;;;;;2082930;28;20037;-77
2024/01/05 05:08:37;;;;;;;15.75;10.20;;;2.30;99.90;;;;;;2080879;28;20028;-77
2024/01/05 05:09:37;;;;;;;14.57;9.85;;;2.30;99.90;;;;;;2080719;28;20100;-76
2024/01/05 05:10:38;;;;;;;15.48;10.20;;;2.40;99.90;;;;;;2077128;28;20021;-76
2024/01/05 05:11:42;;;;;;;15.18;10.45;;;2.40;99.90;;;;;;2078288;28;20025;-77
2024/01/05 05:12:42;;;;;;;14.98;9.95;;;2.30;99.90;;;;;;2075942;28;20026;-76
2024/01/05 05:13:43;;;;;;;16.33;9.95;;;2.30;99.90;;;;;;2082636;28;20406;-76